»·PEaware :: N503AM KOLM-KHQM

N503AM :: KOLM-KHQM

FLIGHT INFORMATION

Flight Status: Arrived
Operator: Privately registered:
United States
More flights under this callsign
Pilot: Gary H. (18965)
Aircraft: CESSNA 172 SKYHAWK
(C172)
More flights by this aircraft type
Origin: KOLM Olympia
United States
Destination: KHQM Bowerman
United States
More flights between these airports :: More routes between these airports
Route: +YELM5 OLM V204 HIGDA
File this flight plan on PilotEdge
Remarks:
Altitude:
(Current/Filed)
6,000ft
Speed:
(Current/Filed)
110kts
Departed: 11-May-20 08:09 AM
Arrived: 11-May-20 08:43 AM
Distance/Time
Traveled:
42nm/0:34
Distance/Time
To Go:
Arrived

Flight Plot

Page will automatically refresh every two minutes.

Flight plan parsing failed; only flown route is shown


Map Options




Map Legend


Flown Route
Filed Route
Departure Airport
Arrival Airport
Navaid (VOR, NDB)
Fix

Horizontal Profiles

Position Reports

Time Latitude Longitude Heading Altitude Ground
Speed
11-May-20 07:49 46.976429 -122.899856 101 195ft 0kts
11-May-20 07:50 46.976429 -122.899856 101 195ft 0kts
11-May-20 07:51 46.976429 -122.899856 101 195ft 0kts
11-May-20 07:52 46.976429 -122.899856 101 195ft 0kts
11-May-20 07:53 46.976429 -122.899856 101 195ft 0kts
11-May-20 07:54 46.976429 -122.899856 101 195ft 0kts
11-May-20 07:55 46.976429 -122.899856 101 195ft 0kts
11-May-20 07:56 46.976429 -122.899856 101 195ft 0kts
11-May-20 07:57 46.976429 -122.899856 101 195ft 0kts
11-May-20 07:58 46.976429 -122.899856 101 195ft 0kts
11-May-20 07:59 46.976429 -122.899856 101 195ft 0kts
11-May-20 08:00 46.976429 -122.899856 101 195ft 0kts
11-May-20 08:01 46.976429 -122.899856 101 195ft 0kts
11-May-20 08:02 46.976429 -122.899856 101 195ft 0kts
11-May-20 08:03 46.976429 -122.899856 101 195ft 0kts
11-May-20 08:04 46.976296 -122.899776 259 195ft 0kts
11-May-20 08:05 46.976144 -122.901194 279 195ft 0kts
11-May-20 08:06 46.976144 -122.901194 279 195ft 0kts
11-May-20 08:07 46.975966 -122.902464 209 195ft 16kts
11-May-20 08:08 46.957229 -122.908390 174 753ft 87kts
11-May-20 08:09 46.956267 -122.873047 73 1503ft 108kts
11-May-20 08:10 46.965019 -122.830555 76 2200ft 109kts
11-May-20 08:11 46.973268 -122.788441 76 2893ft 106kts
11-May-20 08:12 46.992187 -122.774128 289 3612ft 97kts
11-May-20 08:13 46.997425 -122.811410 270 4301ft 92kts
11-May-20 08:14 46.998849 -122.847249 256 5003ft 85kts
11-May-20 08:15 47.006229 -122.878551 335 5570ft 104kts
11-May-20 08:16 47.033901 -122.889564 329 6167ft 101kts
11-May-20 08:17 47.033749 -122.926950 243 6035ft 101kts
11-May-20 08:18 47.023295 -122.965793 242 6042ft 102kts
11-May-20 08:19 47.012741 -123.004703 242 6048ft 103kts
11-May-20 08:20 47.002142 -123.043615 242 6053ft 103kts
11-May-20 08:21 46.991726 -123.082765 246 6057ft 103kts
11-May-20 08:22 46.983039 -123.122697 246 6060ft 102kts
11-May-20 08:23 46.974421 -123.162389 246 6051ft 102kts
11-May-20 08:24 46.968243 -123.204043 262 5993ft 106kts
11-May-20 08:25 46.967680 -123.246938 262 5999ft 105kts
11-May-20 08:26 46.967126 -123.289564 262 6002ft 104kts
11-May-20 08:27 46.966543 -123.332156 262 6006ft 104kts
11-May-20 08:28 46.965247 -123.374468 259 6011ft 104kts
11-May-20 08:29 46.963043 -123.416695 259 6014ft 104kts
11-May-20 08:30 46.962264 -123.459223 262 6016ft 104kts
11-May-20 08:31 46.961546 -123.501689 262 6019ft 104kts
11-May-20 08:32 46.960793 -123.544288 262 6022ft 104kts
11-May-20 08:33 46.961612 -123.587096 266 6023ft 105kts
11-May-20 08:34 46.962756 -123.630632 266 5390ft 110kts
11-May-20 08:35 46.963756 -123.675786 265 4698ft 111kts
11-May-20 08:36 46.966973 -123.720661 275 4006ft 112kts
11-May-20 08:37 46.973379 -123.765286 275 3315ft 112kts
11-May-20 08:38 46.979770 -123.809926 275 2624ft 112kts
11-May-20 08:39 46.982273 -123.854499 260 1879ft 108kts
11-May-20 08:40 46.978228 -123.889581 245 1122ft 82kts
11-May-20 08:41 46.973562 -123.918030 248 224ft 60kts
11-May-20 08:42 46.972383 -123.933541 352 24ft 0kts

Navigation Log

Ident Type
Flight plan parsing failed, navigation log unavailable